Springfield Branson National Airport
KSGF : now visible

Airfield :











YOU CAN JOIN US ON...

 
LOGIN :

Register | Disclaimer

   EN    FR    IT 

 









Legend :    VFR   Marginal VFR   IFR   Intensive IFR   Very Intensive IFR
Visi :
Ceiling :
>= 8 km
>= 3000ft
5 to 8 km
1000 to 3000 ft
1500m to 5 km
500 to 1000 ft
800 to 1500m
200 to 500 ft
< 800m
< 200 ft
Symbols :   Thunderstorms  Fog  Heavy snow  Heavy precipitations  Wind > 20 kt







- Airport Elevation : 1268 ft
- IATA code : SGF


KSGF - Springfield Branson National

CURRENT METAR :
  • 260652Z 17006KT 10SM CLR 22/18 A3005 RMK AO2 SLP161 T02170183

EXPIRED METARs :
  • 260552Z 18005KT 10SM CLR 22/18 A3005 RMK AO2 SLP163 T02170183 10283 20217 403000178 50007
  • 260452Z 18006KT 10SM CLR 22/19 A3006 RMK AO2 SLP164 T02220189
  • 260352Z 18006KT 10SM CLR 23/19 A3004 RMK AO2 SLP161 T02280189

TAF KSGF
Valid from the 26 at 06:00 until the 27 at 06:00 UTC


260520Z 2606/2706 18008KT P6SM SCT100
FM260900 18010KT P6SM BKN100
TEMPO 2611/2615 4SM TSRA BR OVC050CB
FM261500 20014G19KT P6SM VCSH BKN050
FM261800 21015G20KT P6SM SCT050
FM270000 17005KT P6SM FEW250
KZKC FIR / North America



MET'MAP, your aeronautical weather chart ! - Copyright ORBIFLY December 2007 - Disclaimer

ORBIFLY MET'MAP TEAM :

Programming & Development : Alexandra Zaïnal
Concept & Development : Baudouin d'Aumeries
Co-Development & Prog : Marc-Olivier Méhu
Technical & hardware support : Manuel Goepfert

Contact : metmap@orbifly.com




SOURCES & CREDITS :

   NOAA       Earth
Advisory